Terminal Aerodrome Forecast
Issued by NWS Tampa Bay Area, FL

Current Version | Previous Version | Text Only | Print | Product List | Glossary On
Versions: 1 2 3 4 5 6 7 8 9 10 11 12 13 14
481
FTUS42 KTBW 231734
TAFSRQ
TAF
KSRQ 231734Z 2318/2418 06009KT P6SM SCT025 BKN050
     FM232000 07012G17KT P6SM VCTS SCT025CB BKN050
     FM240200 07013G18KT P6SM FEW025 SCT050
     FM240600 07009KT P6SM FEW020 FEW080
     FM241500 09013G18KT P6SM FEW035 FEW250=

USA.gov is the U.S. government's official web portal to all federal, state and local government web resources and services.